createdAt,value
2023-01-30T00:01:58.953Z,101688.19
2023-01-30T00:04:26.538Z,101679.84
2023-01-30T00:06:54.345Z,101679.84
2023-01-30T00:09:22.131Z,101685.88
2023-01-30T00:11:49.956Z,101684.63
2023-01-30T00:14:17.723Z,101686.78
2023-01-30T00:16:46.952Z,101682.09
2023-01-30T00:19:14.746Z,101689.25
2023-01-30T00:21:42.587Z,101670.38
2023-01-30T00:24:10.510Z,101662.81
2023-01-30T00:26:38.401Z,101649.19
2023-01-30T00:29:06.276Z,101641.63
2023-01-30T00:31:34.053Z,101645.03
2023-01-30T00:34:03.213Z,101639.31
2023-01-30T00:36:30.970Z,101637.56
2023-01-30T00:39:00.028Z,101629.97
2023-01-30T00:41:48.195Z,101619.47
2023-01-30T00:44:33.427Z,101598.75
2023-01-30T00:47:06.999Z,101613.81
2023-01-30T00:49:36.464Z,101609.09
2023-01-30T00:52:05.068Z,101604.38
2023-01-30T00:54:32.828Z,101605.75
2023-01-30T00:57:00.632Z,101606.03
2023-01-30T00:59:28.767Z,101610.03
2023-01-30T01:01:56.606Z,101606.13
2023-01-30T01:04:24.532Z,101607.25
2023-01-30T01:06:53.658Z,101605.19
2023-01-30T01:09:21.511Z,101592.31
2023-01-30T01:11:49.280Z,101590.00
2023-01-30T01:14:17.065Z,101575.78
2023-01-30T01:16:45.033Z,101572.94
2023-01-30T01:19:12.867Z,101586.31
2023-01-30T01:21:41.769Z,101575.78
2023-01-30T01:24:14.692Z,101568.94
2023-01-30T01:26:43.423Z,101568.94
2023-01-30T01:29:14.126Z,101558.63
2023-01-30T01:31:42.503Z,101569.41
2023-01-30T01:34:10.392Z,101559.16
2023-01-30T01:36:54.809Z,101559.16
2023-01-30T01:39:24.769Z,101548.63
2023-01-30T01:41:51.900Z,101541.75
2023-01-30T01:44:19.762Z,101535.69
2023-01-30T01:46:51.124Z,101546.22
2023-01-30T01:49:25.089Z,101538.56
2023-01-30T01:51:57.755Z,101539.38
2023-01-30T01:54:33.962Z,101545.44
2023-01-30T01:57:05.674Z,101544.09
2023-01-30T01:59:38.095Z,101550.38
2023-01-30T02:02:10.641Z,101536.41
2023-01-30T02:04:59.378Z,101535.06
2023-01-30T02:07:28.047Z,101528.22
2023-01-30T02:09:57.426Z,101528.78
2023-01-30T02:12:26.617Z,101526.63
2023-01-30T02:14:57.042Z,101533.50
2023-01-30T02:17:24.960Z,101531.66
2023-01-30T02:19:58.765Z,101529.31
2023-01-30T02:22:46.301Z,101522.22
2023-01-30T02:25:36.806Z,101531.47
2023-01-30T02:28:39.400Z,101532.03
2023-01-30T02:31:23.222Z,101529.13
2023-01-30T02:34:02.311Z,101529.94
2023-01-30T02:36:44.278Z,101535.19
2023-01-30T02:39:24.361Z,101517.81
2023-01-30T02:42:01.984Z,101525.69
2023-01-30T02:44:39.158Z,101517.81
2023-01-30T02:47:14.673Z,101506.72
2023-01-30T02:49:47.620Z,101513.59
2023-01-30T02:52:18.360Z,101510.16
2023-01-30T02:54:47.118Z,101517.25
2023-01-30T02:57:20.978Z,101511.22
2023-01-30T02:59:56.306Z,101512.25
2023-01-30T03:02:50.724Z,101499.63
2023-01-30T03:05:32.734Z,101506.72
2023-01-30T03:08:14.273Z,101504.09
2023-01-30T03:10:50.493Z,101497.00
2023-01-30T03:13:23.690Z,101502.00
2023-01-30T03:15:55.271Z,101495.72
2023-01-30T03:18:24.547Z,101484.16
2023-01-30T03:20:53.432Z,101487.03
2023-01-30T03:23:21.212Z,101483.09
2023-01-30T03:25:50.051Z,101480.47
2023-01-30T03:28:21.632Z,101481.28
2023-01-30T03:30:50.953Z,101476.00
2023-01-30T03:33:18.870Z,101482.88
2023-01-30T03:35:52.112Z,101486.06
2023-01-30T03:38:20.774Z,101475.00
2023-01-30T03:40:51.141Z,101475.81
2023-01-30T03:43:18.943Z,101466.88
2023-01-30T03:45:46.857Z,101483.22
2023-01-30T03:48:14.698Z,101477.72
2023-01-30T03:50:42.485Z,101478.03
2023-01-30T03:53:11.887Z,101469.88
2023-01-30T03:55:40.375Z,101470.66
2023-01-30T03:58:08.250Z,101474.66
2023-01-30T04:00:36.138Z,101473.38
2023-01-30T04:03:04.898Z,101466.56
2023-01-30T04:05:33.314Z,101467.09
2023-01-30T04:08:05.938Z,101465.81
2023-01-30T04:10:36.828Z,101477.69
2023-01-30T04:13:04.905Z,101471.41
2023-01-30T04:15:33.310Z,101470.88
2023-01-30T04:18:29.955Z,101475.91
2023-01-30T04:21:01.789Z,101479.91
2023-01-30T04:23:35.676Z,101475.16
2023-01-30T04:26:06.096Z,101486.25
2023-01-30T04:28:37.704Z,101487.81
2023-01-30T04:31:05.602Z,101483.91
2023-01-30T04:33:59.735Z,101477.88
2023-01-30T04:36:29.109Z,101479.44
2023-01-30T04:38:58.259Z,101482.06
2023-01-30T04:41:28.320Z,101486.03
2023-01-30T04:44:00.826Z,101469.44
2023-01-30T04:46:47.258Z,101462.88
2023-01-30T04:49:15.846Z,101466.31
2023-01-30T04:51:44.529Z,101472.63
2023-01-30T04:54:12.334Z,101474.47
2023-01-30T04:56:41.467Z,101491.06
2023-01-30T04:59:09.343Z,101476.06
2023-01-30T05:01:42.857Z,101475.03
2023-01-30T05:04:10.902Z,101470.56
2023-01-30T05:06:38.820Z,101482.66
2023-01-30T05:09:07.182Z,101484.25
2023-01-30T05:11:35.768Z,101496.63
2023-01-30T05:14:04.928Z,101487.69
2023-01-30T05:16:32.749Z,101486.91
2023-01-30T05:19:00.485Z,101492.94
2023-01-30T05:21:29.271Z,101489.53
2023-01-30T05:23:58.145Z,101493.75
2023-01-30T05:26:26.449Z,101482.41
2023-01-30T05:28:55.856Z,101484.00
2023-01-30T05:31:25.448Z,101491.41
2023-01-30T05:33:54.070Z,101497.72
2023-01-30T05:36:23.536Z,101505.88
2023-01-30T05:38:51.294Z,101494.25
2023-01-30T05:41:19.561Z,101504.81
2023-01-30T05:43:49.813Z,101514.22
2023-01-30T05:46:17.609Z,101521.31
2023-01-30T05:48:47.003Z,101518.16
2023-01-30T05:51:19.173Z,101512.88
2023-01-30T05:53:47.529Z,101513.13
2023-01-30T05:56:15.972Z,101507.00
2023-01-30T05:58:44.265Z,101508.28
2023-01-30T06:01:12.902Z,101509.28
2023-01-30T06:03:40.535Z,101504.50
2023-01-30T06:06:12.104Z,101505.56
2023-01-30T06:08:40.201Z,101506.06
2023-01-30T06:11:09.340Z,101516.53
2023-01-30T06:13:37.435Z,101527.81
2023-01-30T06:16:05.862Z,101530.88
2023-01-30T06:18:33.989Z,101527.38
2023-01-30T06:21:02.657Z,101525.22
2023-01-30T06:23:31.983Z,101534.09
2023-01-30T06:26:00.864Z,101542.47
2023-01-30T06:28:29.403Z,101521.91
2023-01-30T06:30:57.293Z,101528.69
2023-01-30T06:33:25.088Z,101532.06
2023-01-30T06:35:53.628Z,101525.69
2023-01-30T06:38:21.702Z,101525.38
2023-01-30T06:40:52.039Z,101539.25
2023-01-30T06:43:19.851Z,101535.75
2023-01-30T06:45:47.607Z,101533.06
2023-01-30T06:48:15.486Z,101531.16
2023-01-30T06:50:43.211Z,101530.03
2023-01-30T06:53:11.977Z,101532.34
2023-01-30T06:55:39.797Z,101535.72
2023-01-30T06:58:11.466Z,101536.44
2023-01-30T07:00:41.165Z,101530.63
2023-01-30T07:03:11.836Z,101541.91
2023-01-30T07:05:40.535Z,101550.31
2023-01-30T07:08:08.563Z,101549.50
2023-01-30T07:10:36.751Z,101549.72
2023-01-30T07:13:04.574Z,101567.34
2023-01-30T07:15:34.401Z,101575.47
2023-01-30T07:18:02.487Z,101583.59
2023-01-30T07:20:31.404Z,101584.41
2023-01-30T07:22:59.404Z,101590.47
2023-01-30T07:25:29.064Z,101596.75
2023-01-30T07:27:58.995Z,101593.31
2023-01-30T07:30:27.920Z,101596.75
2023-01-30T07:32:59.190Z,101600.63
2023-01-30T07:35:29.157Z,101593.78
2023-01-30T07:37:57.301Z,101594.34
2023-01-30T07:40:25.573Z,101597.22
2023-01-30T07:42:57.112Z,101600.63
2023-01-30T07:45:25.266Z,101600.97
2023-01-30T07:47:53.226Z,101597.28
2023-01-30T07:50:22.400Z,101590.47
2023-01-30T07:52:50.180Z,101599.47
2023-01-30T07:55:18.195Z,101597.84
2023-01-30T07:57:46.123Z,101597.03
2023-01-30T08:00:15.283Z,101601.03
2023-01-30T08:02:43.238Z,101601.63
2023-01-30T08:05:11.272Z,101607.19
2023-01-30T08:07:40.739Z,101605.13
2023-01-30T08:10:11.997Z,101601.22
2023-01-30T08:12:41.086Z,101591.78
2023-01-30T08:15:10.507Z,101609.75
2023-01-30T08:17:38.327Z,101612.19
2023-01-30T08:20:07.251Z,101615.16
2023-01-30T08:22:35.074Z,101617.63
2023-01-30T08:25:04.419Z,101628.47
2023-01-30T08:27:32.216Z,101630.44
2023-01-30T08:29:59.975Z,101626.69
2023-01-30T08:32:27.767Z,101632.69
2023-01-30T08:34:56.746Z,101635.47
2023-01-30T08:37:24.720Z,101639.50
2023-01-30T08:39:52.534Z,101643.81
2023-01-30T08:42:21.629Z,101650.97
2023-01-30T08:44:50.027Z,101644.09
2023-01-30T08:47:17.793Z,101647.53
2023-01-30T08:49:45.576Z,101642.53
2023-01-30T08:52:13.358Z,101630.38
2023-01-30T08:54:41.159Z,101641.72
2023-01-30T08:57:09.245Z,101644.03
2023-01-30T08:59:38.469Z,101649.06
2023-01-30T09:02:06.353Z,101647.25
2023-01-30T09:04:34.300Z,101663.59
2023-01-30T09:07:02.140Z,101668.34
2023-01-30T09:09:30.119Z,101654.97
2023-01-30T09:11:57.893Z,101660.53
2023-01-30T09:14:25.795Z,101671.59
2023-01-30T09:16:56.464Z,101683.50
2023-01-30T09:19:25.167Z,101678.47
2023-01-30T09:21:53.809Z,101677.47
2023-01-30T09:24:26.257Z,101685.91
2023-01-30T09:26:54.243Z,101689.31
2023-01-30T09:29:22.642Z,101695.38
2023-01-30T09:31:50.784Z,101700.66
2023-01-30T09:34:20.077Z,101692.28
2023-01-30T09:36:48.408Z,101700.72
2023-01-30T09:39:16.204Z,101695.53
2023-01-30T09:41:55.061Z,101703.72
2023-01-30T09:44:49.844Z,101705.66
2023-01-30T09:47:29.578Z,101702.28
2023-01-30T09:50:06.290Z,101705.22
2023-01-30T09:52:47.300Z,101702.66
2023-01-30T09:55:19.052Z,101713.50
2023-01-30T09:57:48.951Z,101729.09
2023-01-30T10:00:25.623Z,101724.28
2023-01-30T10:02:58.450Z,101719.03
2023-01-30T10:05:34.594Z,101725.09
2023-01-30T10:08:28.681Z,101721.09
2023-01-30T10:11:10.950Z,101738.03
2023-01-30T10:13:55.941Z,101729.00
2023-01-30T10:16:29.338Z,101734.28
2023-01-30T10:19:13.390Z,101754.38
2023-01-30T10:21:51.751Z,101748.16
2023-01-30T10:24:40.787Z,101750.78
2023-01-30T10:27:13.083Z,101758.25
2023-01-30T10:29:44.417Z,101756.97
2023-01-30T10:32:16.722Z,101745.06
2023-01-30T10:34:48.815Z,101758.03
2023-01-30T10:37:23.162Z,101756.16
2023-01-30T10:39:57.385Z,101763.31
2023-01-30T10:42:30.381Z,101764.34
2023-01-30T10:45:09.967Z,101764.34
2023-01-30T10:47:52.014Z,101764.03
2023-01-30T10:50:24.593Z,101749.00
2023-01-30T10:53:03.508Z,101752.97
2023-01-30T10:55:38.274Z,101760.66
2023-01-30T10:58:12.110Z,101750.59
2023-01-30T11:00:44.777Z,101756.44
2023-01-30T11:03:25.370Z,101766.94
2023-01-30T11:05:55.975Z,101764.44
2023-01-30T11:08:27.135Z,101769.59
2023-01-30T11:10:56.186Z,101766.06
2023-01-30T11:13:30.122Z,101764.38
2023-01-30T11:16:00.884Z,101781.91
2023-01-30T11:21:27.063Z,101775.00
2023-01-30T11:24:06.824Z,101772.81
2023-01-30T11:26:46.886Z,101762.66
2023-01-30T11:29:28.403Z,101755.78
2023-01-30T11:31:56.982Z,101762.13
2023-01-30T11:34:25.841Z,101753.38
2023-01-30T11:36:53.792Z,101754.94
2023-01-30T11:39:29.205Z,101766.94
2023-01-30T11:42:04.665Z,101736.38
2023-01-30T11:44:35.125Z,101750.97
2023-01-30T11:47:07.951Z,101752.19
2023-01-30T11:50:19.932Z,101755.50
2023-01-30T11:52:31.231Z,101755.63
2023-01-30T11:55:05.562Z,101760.09
2023-01-30T11:57:42.825Z,101761.91
2023-01-30T12:00:20.322Z,101748.97
2023-01-30T12:02:50.137Z,101760.69
2023-01-30T12:05:26.631Z,101763.28
2023-01-30T12:07:54.506Z,101762.53
2023-01-30T12:10:32.478Z,101767.53
2023-01-30T12:13:03.831Z,101778.22
2023-01-30T12:15:34.243Z,101772.94
2023-01-30T12:18:11.741Z,101773.75
2023-01-30T12:20:50.871Z,101776.91
2023-01-30T12:23:28.587Z,101784.59
2023-01-30T12:26:06.269Z,101796.78
2023-01-30T12:28:42.503Z,101790.13
2023-01-30T12:31:15.838Z,101787.97
2023-01-30T12:33:43.666Z,101775.22
2023-01-30T12:36:24.982Z,101783.41
2023-01-30T12:39:03.153Z,101788.63
2023-01-30T12:41:53.133Z,101789.91
2023-01-30T12:44:47.634Z,101807.69
2023-01-30T12:47:28.660Z,101792.63
2023-01-30T12:50:12.131Z,101785.16
2023-01-30T12:52:57.710Z,101805.44
2023-01-30T12:55:37.537Z,101805.13
2023-01-30T12:58:16.480Z,101809.50
2023-01-30T13:01:01.145Z,101813.91
2023-01-30T13:03:36.889Z,101824.19
2023-01-30T13:06:18.995Z,101819.44
2023-01-30T13:09:04.431Z,101831.81
2023-01-30T13:11:46.040Z,101822.75
2023-01-30T13:14:22.870Z,101836.47
2023-01-30T13:17:03.424Z,101827.22
2023-01-30T13:19:41.340Z,101851.78
2023-01-30T13:22:16.776Z,101841.22
2023-01-30T13:24:55.863Z,101844.56
2023-01-30T13:27:26.714Z,101853.25
2023-01-30T13:29:56.510Z,101848.50
2023-01-30T13:32:36.660Z,101852.69
2023-01-30T13:35:07.933Z,101856.34
2023-01-30T13:37:38.651Z,101872.19
2023-01-30T13:40:17.712Z,101875.34
2023-01-30T13:42:50.826Z,101870.59
2023-01-30T13:45:24.486Z,101879.28
2023-01-30T13:48:05.765Z,101885.41
2023-01-30T13:50:53.321Z,101897.22
2023-01-30T13:53:27.281Z,101895.09
2023-01-30T13:55:58.692Z,101895.34
2023-01-30T13:58:44.945Z,101894.75
2023-01-30T14:01:15.687Z,101901.59
2023-01-30T14:03:44.449Z,101900.50
2023-01-30T14:06:34.644Z,101902.03
2023-01-30T14:09:06.690Z,101919.97
2023-01-30T14:11:38.830Z,101919.94
2023-01-30T14:14:26.026Z,101911.41
2023-01-30T14:16:57.119Z,101928.03
2023-01-30T14:19:43.166Z,101930.06
2023-01-30T14:22:24.635Z,101935.06
2023-01-30T14:25:35.225Z,101944.25
2023-01-30T14:28:51.013Z,101952.91
2023-01-30T14:31:52.978Z,101961.25
2023-01-30T14:34:50.227Z,101962.25
2023-01-30T14:37:29.465Z,101969.38
2023-01-30T14:39:58.504Z,101966.75
2023-01-30T14:42:28.353Z,101991.75
2023-01-30T14:45:01.626Z,101989.34
2023-01-30T14:47:34.121Z,101999.66
2023-01-30T14:50:20.528Z,101990.16
2023-01-30T14:52:50.516Z,101997.53
2023-01-30T14:55:22.621Z,102011.78
2023-01-30T14:57:56.191Z,101995.94
2023-01-30T15:00:29.163Z,102008.84
2023-01-30T15:03:00.661Z,102019.63
2023-01-30T15:05:42.237Z,102028.59
2023-01-30T15:08:15.308Z,102028.09
2023-01-30T15:10:55.394Z,102032.28
2023-01-30T15:13:38.187Z,102040.19
2023-01-30T15:16:19.273Z,102039.16
2023-01-30T15:19:11.098Z,102045.72
2023-01-30T15:21:56.360Z,102042.75
2023-01-30T15:24:52.457Z,102055.41
2023-01-30T15:27:27.181Z,102055.66
2023-01-30T15:30:16.829Z,102055.84
2023-01-30T15:32:45.791Z,102058.47
2023-01-30T15:35:24.409Z,102061.06
2023-01-30T15:37:54.765Z,102071.06
2023-01-30T15:40:26.102Z,102073.38
2023-01-30T15:43:09.036Z,102089.44
2023-01-30T15:45:47.040Z,102092.56
2023-01-30T15:48:42.023Z,102095.69
2023-01-30T15:51:13.260Z,102094.41
2023-01-30T15:53:44.883Z,102096.22
2023-01-30T15:56:20.235Z,102101.50
2023-01-30T15:58:48.358Z,102099.94
2023-01-30T16:01:19.427Z,102097.19
2023-01-30T16:03:47.568Z,102107.50
2023-01-30T16:06:24.498Z,102112.72
2023-01-30T16:09:01.811Z,102120.06
2023-01-30T16:11:34.596Z,102116.06
2023-01-30T16:14:02.474Z,102129.75
2023-01-30T16:16:32.573Z,102135.03
2023-01-30T16:19:03.858Z,102151.28
2023-01-30T16:21:35.174Z,102155.44
2023-01-30T16:24:07.724Z,102161.44
2023-01-30T16:26:37.276Z,102164.22
2023-01-30T16:29:08.317Z,102171.81
2023-01-30T16:31:39.861Z,102178.81
2023-01-30T16:34:18.890Z,102182.66
2023-01-30T16:36:48.465Z,102187.56
2023-01-30T16:39:32.737Z,102197.47
2023-01-30T16:42:01.597Z,102209.50
2023-01-30T16:44:30.291Z,102212.50
2023-01-30T16:47:01.139Z,102209.75
2023-01-30T16:49:43.482Z,102220.44
2023-01-30T16:52:20.652Z,102210.84
2023-01-30T16:54:52.607Z,102219.19
2023-01-30T16:57:36.014Z,102223.53
2023-01-30T17:00:08.193Z,102226.66
2023-01-30T17:02:38.370Z,102232.13
2023-01-30T17:05:21.629Z,102226.53
2023-01-30T17:07:51.033Z,102239.16
2023-01-30T17:11:01.089Z,102237.22
2023-01-30T17:13:36.018Z,102241.31
2023-01-30T17:16:23.777Z,102251.50
2023-01-30T17:18:54.196Z,102255.16
2023-01-30T17:21:33.780Z,102259.63
2023-01-30T17:24:03.599Z,102274.09
2023-01-30T17:26:32.448Z,102272.09
2023-01-30T17:29:01.637Z,102279.09
2023-01-30T17:31:29.521Z,102280.59
2023-01-30T17:33:57.469Z,102289.38
2023-01-30T17:36:28.069Z,102287.44
2023-01-30T17:38:56.765Z,102294.75
2023-01-30T17:41:27.099Z,102300.25
2023-01-30T17:43:54.961Z,102301.84
2023-01-30T17:46:34.877Z,102302.88
2023-01-30T17:49:02.785Z,102305.53
2023-01-30T17:51:30.554Z,102304.13
2023-01-30T17:53:58.345Z,102311.47
2023-01-30T17:56:35.278Z,102317.38
2023-01-30T17:59:05.470Z,102318.03
2023-01-30T18:01:34.683Z,102323.78
2023-01-30T18:04:02.508Z,102321.59
2023-01-30T18:06:32.038Z,102326.03
2023-01-30T18:08:59.833Z,102329.09
2023-01-30T18:11:27.620Z,102330.59
2023-01-30T18:13:55.431Z,102325.75
2023-01-30T18:16:26.103Z,102326.22
2023-01-30T18:18:55.517Z,102338.81
2023-01-30T18:21:23.309Z,102338.44
2023-01-30T18:23:51.450Z,102342.31
2023-01-30T18:26:20.052Z,102341.16
2023-01-30T18:28:48.554Z,102340.00
2023-01-30T18:31:17.008Z,102342.47
2023-01-30T18:33:45.548Z,102341.91
2023-01-30T18:36:17.229Z,102354.91
2023-01-30T18:38:45.787Z,102362.66
2023-01-30T18:41:15.184Z,102359.88
2023-01-30T18:43:43.608Z,102372.88
2023-01-30T18:46:14.357Z,102364.81
2023-01-30T18:48:42.904Z,102353.16
2023-01-30T18:51:14.208Z,102358.81
2023-01-30T18:53:44.071Z,102361.91
2023-01-30T18:56:13.851Z,102376.28
2023-01-30T18:58:41.811Z,102376.94
2023-01-30T19:01:11.182Z,102369.47
2023-01-30T19:03:39.420Z,102369.72
2023-01-30T19:06:10.081Z,102371.69
2023-01-30T19:08:38.625Z,102378.22
2023-01-30T19:11:22.899Z,102381.50
2023-01-30T19:13:50.697Z,102369.59
2023-01-30T19:16:19.135Z,102375.28
2023-01-30T19:18:47.095Z,102377.31
2023-01-30T19:21:14.886Z,102388.25
2023-01-30T19:23:42.725Z,102384.66
2023-01-30T19:26:12.194Z,102389.53
2023-01-30T19:28:41.639Z,102388.38
2023-01-30T19:31:10.661Z,102389.00
2023-01-30T19:33:38.544Z,102396.50
2023-01-30T19:36:10.114Z,102390.88
2023-01-30T19:38:37.956Z,102387.28
2023-01-30T19:41:06.386Z,102380.84
2023-01-30T19:43:35.329Z,102386.50
2023-01-30T19:46:03.203Z,102385.13
2023-01-30T19:48:31.980Z,102394.22
2023-01-30T19:51:01.001Z,102394.84
2023-01-30T19:53:28.812Z,102402.38
2023-01-30T19:55:56.628Z,102400.34
2023-01-30T19:58:24.380Z,102395.72
2023-01-30T20:00:53.715Z,102397.19
2023-01-30T20:03:21.478Z,102409.94
2023-01-30T20:05:49.250Z,102395.59
2023-01-30T20:08:31.764Z,102404.91
2023-01-30T20:11:02.727Z,102407.94
2023-01-30T20:13:30.537Z,102411.00
2023-01-30T20:16:05.992Z,102412.22
2023-01-30T20:18:37.413Z,102414.28
2023-01-30T20:21:07.199Z,102414.28
2023-01-30T20:23:35.310Z,102422.13
2023-01-30T20:26:07.399Z,102415.50
2023-01-30T20:28:35.880Z,102423.75
2023-01-30T20:31:11.244Z,102425.00
2023-01-30T20:33:39.511Z,102428.00
2023-01-30T20:36:09.435Z,102421.38
2023-01-30T20:38:38.917Z,102424.22
2023-01-30T20:41:10.070Z,102418.38
2023-01-30T20:43:39.772Z,102413.31
2023-01-30T20:46:10.667Z,102409.91
2023-01-30T20:48:39.438Z,102417.19
2023-01-30T20:51:09.420Z,102427.66
2023-01-30T20:53:38.360Z,102434.91
2023-01-30T20:56:08.932Z,102434.91
2023-01-30T20:58:37.933Z,102431.69
2023-01-30T21:01:10.568Z,102424.84
2023-01-30T21:03:39.542Z,102428.47
2023-01-30T21:06:07.504Z,102432.31
2023-01-30T21:08:35.611Z,102431.72
2023-01-30T21:11:08.762Z,102442.63
2023-01-30T21:13:38.290Z,102442.03
2023-01-30T21:16:08.839Z,102431.75
2023-01-30T21:18:39.963Z,102433.78
2023-01-30T21:21:08.473Z,102440.22
2023-01-30T21:23:36.969Z,102439.44
2023-01-30T21:26:06.447Z,102445.66
2023-01-30T21:28:34.772Z,102442.66
2023-01-30T21:31:06.296Z,102448.13
2023-01-30T21:33:34.278Z,102448.53
2023-01-30T21:36:04.067Z,102439.84
2023-01-30T21:38:49.457Z,102432.19
2023-01-30T21:41:36.664Z,102430.56
2023-01-30T21:44:05.161Z,102434.22
2023-01-30T21:46:34.673Z,102433.59
2023-01-30T21:49:02.436Z,102443.47
2023-01-30T21:51:32.132Z,102458.44
2023-01-30T21:54:01.864Z,102452.56
2023-01-30T21:56:29.717Z,102464.88
2023-01-30T21:58:59.351Z,102468.50
2023-01-30T22:01:27.811Z,102461.22
2023-01-30T22:03:55.981Z,102458.44
2023-01-30T22:06:23.814Z,102454.78
2023-01-30T22:08:56.257Z,102466.69
2023-01-30T22:11:24.072Z,102467.28
2023-01-30T22:13:52.016Z,102474.94
2023-01-30T22:16:21.631Z,102466.88
2023-01-30T22:19:00.940Z,102461.63
2023-01-30T22:21:32.224Z,102453.38
2023-01-30T22:24:03.007Z,102456.97
2023-01-30T22:26:31.144Z,102459.81
2023-01-30T22:29:00.489Z,102471.31
2023-01-30T22:31:30.612Z,102458.81
2023-01-30T22:33:58.869Z,102458.00
2023-01-30T22:36:28.575Z,102453.97
2023-01-30T22:38:56.840Z,102451.56
2023-01-30T22:41:27.531Z,102445.72
2023-01-30T22:43:56.569Z,102449.56
2023-01-30T22:46:27.292Z,102445.72
2023-01-30T22:48:55.550Z,102445.09
2023-01-30T22:51:25.079Z,102446.53
2023-01-30T22:53:55.088Z,102439.88
2023-01-30T22:56:24.773Z,102444.72
2023-01-30T22:58:54.530Z,102441.50
2023-01-30T23:01:24.463Z,102440.09
2023-01-30T23:03:55.980Z,102434.25
2023-01-30T23:06:24.917Z,102422.38
2023-01-30T23:08:54.260Z,102429.41
2023-01-30T23:11:24.442Z,102422.75
2023-01-30T23:13:56.401Z,102424.97
2023-01-30T23:16:27.197Z,102419.34
2023-01-30T23:18:58.759Z,102416.94
2023-01-30T23:21:28.017Z,102405.81
2023-01-30T23:23:58.615Z,102403.63
2023-01-30T23:26:28.539Z,102407.25
2023-01-30T23:28:57.734Z,102409.25
2023-01-30T23:31:27.889Z,102402.63
2023-01-30T23:33:56.781Z,102403.63
2023-01-30T23:36:25.145Z,102401.19
2023-01-30T23:38:54.655Z,102411.88
2023-01-30T23:41:24.353Z,102411.28
2023-01-30T23:43:53.012Z,102404.63
2023-01-30T23:46:24.620Z,102400.00
2023-01-30T23:48:55.813Z,102395.97
2023-01-30T23:51:28.197Z,102401.38
2023-01-30T23:53:56.759Z,102399.19
2023-01-30T23:56:26.018Z,102406.44
2023-01-30T23:58:53.978Z,102421.53
